logo
Search for airport 
image banner adimage banner adimage banner ad
image banner ad

MMHPH - Hotel Palmas

Located in San Andres Cholula, Mexico

ICAO - , IATA -

Data provided by Airmate  

General information

Coordinates: N19°1'38" W98°13'47"
Elevation is 7040 feet MSL.
Magnetic variation is 3° East
View others Airports in Puebla

Operational data

Special qualification required
Current time UTC:
Current local time:
TAF: TAF MMPB 240517Z 2406/2506 01005KT P6SM SCT020 FM240900 30005KT P6SM SKC BECMG 2419/2421 18010KT SCT020 FM250100 36005KT P6SM SKC
View NOTAMs / SUP AIP / TFR affecting this airport [VIEW]
Communications frequencies: [VIEW]

Runways:

Airport contact information

Address: San Andres Cholula Mexico

Satellite view of MMHPH